PKWA/KWA METAR and TAF weather

Enter ICAO airport designator
Station Type Date Time Source
PKWA METAR 2019/04/25 02:00 UTC NOAA

PKWA 250200Z AUTO 07014KT 10SM SCT024 SCT055 30/23 A2981 RMK AO2 T03020231


Station Type Date Time Source
PKWA Decoded METAR 2019/04/25 02:00 UTC NOAA

Kwajalein, Bucholz AAF, Kwajalein KMR ATOL Airport, Marshall Islands (PKWA) 08-43N 167-44E 2M
Apr 24, 2019 - 10:00 PM EDT / 2019.04.25 0200 UTC
Wind: from the ENE (070 degrees) at 16 MPH (14 KT):0
Visibility: 10 mile(s):0
Sky conditions: partly cloudy
Temperature: 86.4 F (30.2 C)
Heat index: 93.9 F (34.4 C):1
Dew Point: 73.6 F (23.1 C)
Relative Humidity: 65%
Pressure (altimeter): 29.81 in. Hg (1009 hPa)
ob: PKWA 250200Z AUTO 07014KT 10SM SCT024 SCT055 30/23 A2981 RMK AO2 T03020231
cycle: 2

Station Type Date Time Source
PKWA TAF 2019/04/24 18:37 UTC NOAA

TAF PKWA 241730Z 2418/2518 07016G22KT P6SM FEW020 SCT040

Example: see airport list